Time;durP1;ratioP1;P1;durP2;ratioP2;P2;SDS_P1;SDS_P2;PMS_P1;PMS_P2;Temp;Humidity;BMP_temperature;BMP_pressure;BME280_temperature;BME280_humidity;BME280_pressure;Samples;Min_cycle;Max_cycle;Signal;HPM_P1;HPM_P2
2021/03/10 00:00:26;;;;;;;14.30;11.47;;;7.70;98.30;;;;;;5106501;28;20495;-73
2021/03/10 00:02:54;;;;;;;13.73;10.50;;;7.80;99.90;;;;;;5103503;28;20449;-73
2021/03/10 00:05:21;;;;;;;14.93;11.87;;;7.80;99.90;;;;;;5105282;28;20482;-73
2021/03/10 00:07:48;;;;;;;13.03;10.50;;;7.80;99.90;;;;;;5106777;28;20485;-73
2021/03/10 00:10:16;;;;;;;11.90;9.53;;;7.70;99.90;;;;;;5106056;28;20448;-73
2021/03/10 00:12:44;;;;;;;13.23;10.57;;;7.70;99.90;;;;;;5131520;27;20446;-73
2021/03/10 00:15:13;;;;;;;12.30;10.50;;;7.70;99.90;;;;;;5110498;27;20460;-74
2021/03/10 00:17:42;;;;;;;14.73;12.60;;;7.60;99.90;;;;;;5106956;28;20478;-74
2021/03/10 00:20:12;;;;;;;16.70;11.97;;;7.50;99.90;;;;;;5103104;28;20548;-73
2021/03/10 00:22:39;;;;;;;21.30;12.77;;;7.50;99.90;;;;;;5123467;27;20446;-74
2021/03/10 00:25:07;;;;;;;19.80;12.97;;;7.50;99.90;;;;;;5108696;28;20515;-74
2021/03/10 00:27:35;;;;;;;16.63;12.20;;;7.40;99.90;;;;;;5088248;28;20530;-75
2021/03/10 00:30:06;;;;;;;18.73;13.00;;;7.30;99.90;;;;;;5090078;28;20496;-74
2021/03/10 00:32:33;;;;;;;21.17;13.83;;;7.40;99.90;;;;;;5106574;28;20486;-75
2021/03/10 00:35:02;;;;;;;18.15;13.02;;;7.40;99.90;;;;;;5107788;28;20522;-74
2021/03/10 00:37:29;;;;;;;15.13;11.60;;;7.30;99.90;;;;;;5088989;28;20218;-74
2021/03/10 00:39:57;;;;;;;17.27;12.70;;;7.30;99.90;;;;;;5088935;28;20441;-76
2021/03/10 00:42:24;;;;;;;15.97;11.23;;;7.20;99.90;;;;;;5107672;28;20498;-75
2021/03/10 00:44:51;;;;;;;13.63;10.97;;;7.10;99.90;;;;;;5104991;28;20468;-74
2021/03/10 00:47:19;;;;;;;12.97;10.83;;;7.00;99.90;;;;;;5108405;28;20890;-74
2021/03/10 00:49:47;;;;;;;15.50;11.53;;;7.00;99.90;;;;;;5107773;28;20703;-74
2021/03/10 00:52:14;;;;;;;21.63;13.13;;;7.10;99.90;;;;;;5107247;28;20459;-76
2021/03/10 00:54:42;;;;;;;16.40;11.33;;;7.10;99.90;;;;;;5108033;28;20455;-73
2021/03/10 00:57:09;;;;;;;15.83;11.77;;;7.10;99.90;;;;;;5108077;28;20469;-75
2021/03/10 00:59:36;;;;;;;18.83;12.50;;;7.10;99.90;;;;;;5104811;28;20489;-76
2021/03/10 01:02:04;;;;;;;14.77;11.40;;;7.20;99.90;;;;;;5107608;28;20443;-73
2021/03/10 01:04:32;;;;;;;15.10;12.20;;;7.20;99.90;;;;;;5107095;28;20590;-75
2021/03/10 01:07:00;;;;;;;20.47;14.30;;;7.30;99.90;;;;;;5086886;28;20479;-74
2021/03/10 01:09:27;;;;;;;17.60;13.20;;;7.30;99.90;;;;;;5108090;28;20458;-74
2021/03/10 01:11:55;;;;;;;14.77;12.00;;;7.30;99.90;;;;;;5090082;28;20444;-74
2021/03/10 01:14:23;;;;;;;15.20;11.87;;;7.20;99.90;;;;;;5109784;28;20444;-74
2021/03/10 01:16:51;;;;;;;14.70;11.37;;;7.20;99.90;;;;;;5107384;28;20441;-75
2021/03/10 01:19:18;;;;;;;18.43;13.07;;;7.20;99.90;;;;;;5105498;28;20441;-74
2021/03/10 01:21:46;;;;;;;16.83;12.00;;;7.30;99.90;;;;;;5107942;28;20709;-74
2021/03/10 01:24:14;;;;;;;16.07;11.13;;;7.30;99.90;;;;;;5091822;28;20827;-75
2021/03/10 01:26:41;;;;;;;18.10;12.10;;;7.30;99.90;;;;;;5110554;28;20461;-74
2021/03/10 01:29:08;;;;;;;18.93;13.40;;;7.30;99.90;;;;;;5110127;28;20519;-75
2021/03/10 01:31:35;;;;;;;16.33;11.37;;;7.30;99.90;;;;;;5109367;28;20457;-75
2021/03/10 01:34:02;;;;;;;16.30;11.20;;;7.20;99.90;;;;;;5110119;28;20450;-74
2021/03/10 01:36:30;;;;;;;16.00;11.03;;;7.20;99.90;;;;;;5110263;28;20808;-74
2021/03/10 01:38:58;;;;;;;19.47;13.40;;;7.20;99.90;;;;;;5093996;28;20485;-74
2021/03/10 01:41:25;;;;;;;17.37;11.80;;;7.20;99.90;;;;;;5092074;28;20450;-75
2021/03/10 01:43:52;;;;;;;16.50;11.90;;;7.20;99.90;;;;;;5095559;28;20453;-77
2021/03/10 01:46:20;;;;;;;16.93;11.33;;;7.20;99.90;;;;;;5110736;28;20477;-75
2021/03/10 01:48:48;;;;;;;18.50;13.83;;;7.20;99.90;;;;;;5112455;28;20466;-73
2021/03/10 01:51:15;;;;;;;18.33;13.00;;;7.20;99.90;;;;;;5109311;28;21048;-74
2021/03/10 01:53:43;;;;;;;17.37;12.00;;;7.10;99.90;;;;;;5108957;28;20446;-76
2021/03/10 01:56:13;;;;;;;18.07;12.50;;;7.10;99.90;;;;;;5109298;28;20491;-74
2021/03/10 01:58:40;;;;;;;18.83;12.80;;;7.20;99.90;;;;;;5104967;28;20470;-74
2021/03/10 02:01:07;;;;;;;17.90;11.83;;;7.20;99.90;;;;;;5108653;28;20518;-76
2021/03/10 02:03:34;;;;;;;15.33;11.17;;;7.20;99.90;;;;;;5111875;28;20847;-75
2021/03/10 02:06:02;;;;;;;20.20;13.37;;;7.20;99.90;;;;;;5109352;28;20489;-75
2021/03/10 02:08:45;;;;;;;19.50;13.07;;;7.20;99.90;;;;;;5109823;28;20474;-75
2021/03/10 02:11:21;;;;;;;17.20;12.33;;;7.10;99.90;;;;;;5105658;28;20457;-74
2021/03/10 02:14:01;;;;;;;19.03;11.93;;;7.00;99.90;;;;;;5092544;28;20434;-76
2021/03/10 02:16:37;;;;;;;20.93;13.47;;;7.00;99.90;;;;;;5110452;27;20449;-74
2021/03/10 02:19:22;;;;;;;18.57;13.27;;;7.00;99.90;;;;;;5091415;28;20825;-74
2021/03/10 02:21:55;;;;;;;19.17;13.17;;;7.20;99.90;;;;;;5092244;28;20990;-74
2021/03/10 02:24:52;;;;;;;19.93;13.10;;;7.20;99.90;;;;;;5109850;28;20961;-74
2021/03/10 02:27:51;;;;;;;21.20;13.73;;;7.10;99.90;;;;;;5111244;28;20481;-75
2021/03/10 02:30:21;;;;;;;24.13;13.73;;;7.20;99.90;;;;;;5066240;28;21020;-75
2021/03/10 02:32:54;;;;;;;22.87;13.83;;;7.20;99.90;;;;;;5101481;28;20835;-74
2021/03/10 02:35:22;;;;;;;18.07;13.90;;;7.20;99.90;;;;;;5110088;28;20469;-75
2021/03/10 02:37:52;;;;;;;22.10;13.93;;;7.10;99.90;;;;;;5090901;28;21047;-74
2021/03/10 02:40:22;;;;;;;18.13;13.63;;;7.00;99.90;;;;;;5108365;28;20453;-73
2021/03/10 02:42:51;;;;;;;16.63;12.40;;;7.00;99.90;;;;;;5111510;28;20460;-74
2021/03/10 02:45:20;;;;;;;21.33;13.87;;;7.00;99.90;;;;;;5111784;27;20460;-76
2021/03/10 02:47:47;;;;;;;19.17;14.30;;;7.30;99.90;;;;;;5094194;28;20534;-76
2021/03/10 02:50:16;;;;;;;20.60;12.60;;;7.20;99.90;;;;;;5090060;28;20485;-74
2021/03/10 02:52:44;;;;;;;22.10;13.80;;;7.20;99.90;;;;;;5109529;28;20441;-76
2021/03/10 02:55:11;;;;;;;18.80;14.47;;;7.20;99.90;;;;;;5107482;28;20545;-74
2021/03/10 02:57:39;;;;;;;21.10;14.33;;;7.20;99.90;;;;;;5109606;28;20480;-75
2021/03/10 03:00:10;;;;;;;21.60;14.47;;;7.20;99.90;;;;;;5092000;28;20449;-76
2021/03/10 03:02:38;;;;;;;21.10;14.13;;;7.20;99.90;;;;;;5110084;28;20494;-77
2021/03/10 03:05:07;;;;;;;21.60;14.30;;;7.20;99.90;;;;;;5092068;28;20471;-74
2021/03/10 03:07:37;;;;;;;19.23;13.73;;;7.10;99.90;;;;;;5091583;28;20461;-75
2021/03/10 03:10:05;;;;;;;22.20;14.30;;;7.20;99.90;;;;;;5108132;28;20437;-74
2021/03/10 03:12:33;;;;;;;26.13;15.47;;;7.10;99.90;;;;;;5094329;28;20453;-74
2021/03/10 03:15:01;;;;;;;25.43;16.70;;;7.20;99.90;;;;;;5109657;28;20467;-74
2021/03/10 03:17:30;;;;;;;23.93;15.77;;;7.20;99.90;;;;;;5109440;28;20476;-77
2021/03/10 03:20:00;;;;;;;23.37;14.37;;;7.10;99.90;;;;;;5107372;28;20449;-75
2021/03/10 03:22:28;;;;;;;22.37;14.40;;;7.00;99.90;;;;;;5091150;28;20836;-77
2021/03/10 03:24:55;;;;;;;21.80;15.80;;;7.00;99.90;;;;;;5096729;28;20500;-73
2021/03/10 03:27:25;;;;;;;24.57;17.30;;;7.30;99.90;;;;;;5106708;28;20481;-75
2021/03/10 03:29:55;;;;;;;23.00;14.20;;;7.10;99.90;;;;;;5109560;28;20475;-73
2021/03/10 03:32:25;;;;;;;22.23;14.90;;;7.10;99.90;;;;;;5108796;28;21006;-74
2021/03/10 03:34:54;;;;;;;21.87;14.40;;;7.00;99.90;;;;;;5105920;28;20456;-73
2021/03/10 03:37:40;;;;;;;21.83;14.27;;;7.10;99.90;;;;;;5107180;28;21007;-73
2021/03/10 03:40:09;;;;;;;20.90;13.97;;;7.10;99.90;;;;;;5109489;28;20503;-74
2021/03/10 03:42:37;;;;;;;23.90;14.43;;;7.10;99.90;;;;;;5108251;28;20475;-72
2021/03/10 03:45:06;;;;;;;22.83;13.93;;;7.10;99.90;;;;;;5125350;27;20445;-73
2021/03/10 03:47:33;;;;;;;22.00;14.70;;;7.10;99.90;;;;;;5114490;27;20549;-73
2021/03/10 03:50:02;;;;;;;23.87;15.10;;;7.20;99.90;;;;;;5109894;28;20495;-73
2021/03/10 03:52:30;;;;;;;26.47;16.90;;;7.20;99.90;;;;;;5107861;28;20490;-75
2021/03/10 03:54:57;;;;;;;23.00;14.17;;;7.10;99.90;;;;;;5107570;28;20951;-72
2021/03/10 03:57:24;;;;;;;22.37;14.80;;;7.00;99.90;;;;;;5088960;28;20903;-73
2021/03/10 03:59:51;;;;;;;23.30;15.43;;;7.00;99.90;;;;;;5124775;27;20442;-72
2021/03/10 04:02:18;;;;;;;21.20;14.13;;;7.10;99.90;;;;;;5109133;28;20502;-73
2021/03/10 04:04:45;;;;;;;18.70;14.77;;;7.10;99.90;;;;;;5107676;28;20536;-72
2021/03/10 04:07:13;;;;;;;21.83;15.53;;;7.10;99.90;;;;;;5106365;28;20489;-73
2021/03/10 04:09:40;;;;;;;19.50;14.57;;;7.00;99.90;;;;;;5075694;28;20457;-73
2021/03/10 04:12:09;;;;;;;25.73;16.80;;;7.00;99.90;;;;;;5107297;28;20461;-72
2021/03/10 04:14:36;;;;;;;29.60;16.63;;;7.00;99.90;;;;;;5108247;28;20461;-72
2021/03/10 04:17:03;;;;;;;23.30;15.87;;;7.00;99.90;;;;;;5108297;28;20469;-73
2021/03/10 04:19:31;;;;;;;25.80;15.40;;;7.00;99.90;;;;;;5123455;27;20543;-75
2021/03/10 04:21:58;;;;;;;22.07;15.20;;;7.10;99.90;;;;;;5109123;28;20460;-74
2021/03/10 04:24:26;;;;;;;22.67;15.07;;;7.00;99.90;;;;;;5108825;28;20453;-74
2021/03/10 04:26:53;;;;;;;26.10;15.50;;;7.00;99.90;;;;;;5091245;28;20465;-75
2021/03/10 04:29:20;;;;;;;26.30;16.50;;;7.20;99.90;;;;;;5090323;28;21037;-75
2021/03/10 04:31:47;;;;;;;24.80;15.50;;;7.00;99.90;;;;;;5107092;28;20442;-74
2021/03/10 04:34:15;;;;;;;26.17;15.67;;;7.00;99.90;;;;;;5108675;28;20932;-74
2021/03/10 04:36:42;;;;;;;23.63;16.57;;;7.00;99.90;;;;;;5091094;28;20858;-75
2021/03/10 04:39:09;;;;;;;21.40;15.17;;;7.00;99.90;;;;;;5108610;28;20453;-74
2021/03/10 04:41:37;;;;;;;20.97;15.93;;;7.00;99.90;;;;;;5104987;28;20464;-73
2021/03/10 04:44:05;;;;;;;23.53;15.40;;;6.90;99.90;;;;;;5095868;28;20506;-75
2021/03/10 04:46:32;;;;;;;24.83;15.87;;;6.90;99.90;;;;;;5088785;28;21461;-73
2021/03/10 04:48:59;;;;;;;22.80;13.17;;;6.90;99.90;;;;;;5108474;28;20473;-72
2021/03/10 04:51:27;;;;;;;24.43;16.43;;;6.90;99.90;;;;;;5107451;28;20963;-72
2021/03/10 04:53:54;;;;;;;24.13;13.80;;;6.80;99.90;;;;;;5091777;28;20441;-72
2021/03/10 04:56:21;;;;;;;21.03;13.63;;;6.80;99.90;;;;;;5107640;28;20461;-72
2021/03/10 04:58:49;;;;;;;26.07;15.13;;;6.90;99.90;;;;;;5112679;28;20468;-74
2021/03/10 05:01:16;;;;;;;23.60;15.50;;;6.70;99.90;;;;;;5102378;28;20457;-74
2021/03/10 05:03:43;;;;;;;23.83;15.20;;;6.70;99.90;;;;;;5113216;28;20465;-71
2021/03/10 05:06:11;;;;;;;23.85;15.70;;;6.70;99.90;;;;;;5090004;28;20470;-73
2021/03/10 05:08:52;;;;;;;30.07;16.40;;;6.80;99.90;;;;;;5092680;28;20245;-73
2021/03/10 05:11:19;;;;;;;24.00;14.30;;;6.80;99.90;;;;;;5110504;28;20461;-72
2021/03/10 05:13:47;;;;;;;21.27;14.27;;;6.90;99.90;;;;;;5112384;28;20461;-72
2021/03/10 05:16:15;;;;;;;23.13;14.90;;;6.80;99.90;;;;;;5111441;28;20449;-72
2021/03/10 05:18:43;;;;;;;21.30;14.07;;;6.70;99.90;;;;;;5111808;28;21007;-72
2021/03/10 05:21:11;;;;;;;24.80;15.33;;;6.70;99.90;;;;;;5104548;27;20535;-75
2021/03/10 05:23:41;;;;;;;20.13;15.13;;;6.70;99.90;;;;;;5088538;28;20448;-73
2021/03/10 05:26:10;;;;;;;26.40;17.13;;;6.70;99.90;;;;;;5093670;28;20521;-72
2021/03/10 05:28:37;;;;;;;19.55;14.65;;;6.60;99.90;;;;;;5111981;28;20643;-74
2021/03/10 05:31:05;;;;;;;18.60;14.03;;;6.50;99.90;;;;;;5098289;28;20241;-73
2021/03/10 05:33:34;;;;;;;20.90;14.43;;;6.60;99.90;;;;;;5098990;28;20549;-74
2021/03/10 05:36:02;;;;;;;22.83;15.40;;;6.70;99.90;;;;;;5108141;27;20449;-73
2021/03/10 05:38:31;;;;;;;24.77;16.10;;;6.60;99.90;;;;;;5094003;28;20465;-73
2021/03/10 05:40:59;;;;;;;24.30;14.37;;;6.60;99.90;;;;;;5111303;28;20476;-74
2021/03/10 05:43:26;;;;;;;21.27;14.93;;;6.60;99.90;;;;;;5110938;28;20547;-73
2021/03/10 05:45:54;;;;;;;20.47;14.87;;;6.70;99.90;;;;;;5091454;28;20250;-74
2021/03/10 05:48:21;;;;;;;26.27;14.40;;;6.70;99.90;;;;;;5092631;28;20533;-74
2021/03/10 05:50:49;;;;;;;22.60;14.97;;;6.70;99.90;;;;;;5111384;28;20552;-74
2021/03/10 05:53:19;;;;;;;26.13;15.73;;;6.70;99.90;;;;;;5111580;28;20952;-74
2021/03/10 05:55:47;;;;;;;26.43;15.50;;;6.70;99.90;;;;;;5108331;28;20955;-72
2021/03/10 05:58:14;;;;;;;24.90;15.02;;;6.80;99.90;;;;;;5110203;28;20597;-71
2021/03/10 06:00:45;;;;;;;24.20;17.20;;;6.70;99.90;;;;;;5110010;27;20662;-73
2021/03/10 06:03:13;;;;;;;24.73;17.30;;;6.70;99.90;;;;;;5106925;28;21124;-71
2021/03/10 06:05:41;;;;;;;20.30;14.67;;;6.60;99.90;;;;;;5108096;28;20457;-72
2021/03/10 06:08:10;;;;;;;26.60;16.13;;;6.60;99.90;;;;;;5105565;28;20841;-72
2021/03/10 06:10:40;;;;;;;25.40;17.67;;;6.60;99.90;;;;;;5105928;27;20448;-73
2021/03/10 06:13:19;;;;;;;24.20;15.80;;;6.60;99.90;;;;;;5101766;27;20194;-72
2021/03/10 06:15:46;;;;;;;26.00;15.40;;;6.60;99.90;;;;;;5108766;28;21069;-73
2021/03/10 06:18:24;;;;;;;27.95;18.42;;;6.60;99.90;;;;;;5111904;27;20472;-72
2021/03/10 06:21:02;;;;;;;26.33;16.80;;;6.60;99.90;;;;;;5111808;27;20203;-72
2021/03/10 06:23:30;;;;;;;24.33;15.90;;;6.50;99.90;;;;;;5110276;28;20444;-71
2021/03/10 06:25:57;;;;;;;25.63;17.17;;;6.50;99.90;;;;;;5092892;28;20456;-70
2021/03/10 06:28:34;;;;;;;25.65;15.82;;;6.50;99.90;;;;;;5091530;28;20465;-71
2021/03/10 06:31:02;;;;;;;29.83;16.80;;;6.30;99.90;;;;;;5109788;28;20194;-71
2021/03/10 06:33:29;;;;;;;22.48;14.45;;;6.20;1.00;;;;;;5109989;28;20483;-71
2021/03/10 06:35:56;;;;;;;27.50;15.68;;;6.30;1.00;;;;;;5111199;28;20606;-71
2021/03/10 06:38:23;;;;;;;23.47;15.10;;;6.40;1.00;;;;;;5106409;28;20230;-71
2021/03/10 06:40:56;;;;;;;25.02;16.10;;;6.60;1.00;;;;;;5110294;28;20464;-74
2021/03/10 06:43:35;;;;;;;25.02;14.90;;;6.60;1.00;;;;;;5104937;27;20195;-72
2021/03/10 06:46:15;;;;;;;24.65;18.42;;;6.60;1.00;;;;;;5102579;28;20445;-72
2021/03/10 06:48:56;;;;;;;23.60;16.27;;;6.90;99.90;;;;;;5100055;28;20238;-74
2021/03/10 06:51:25;;;;;;;25.90;16.10;;;6.70;99.90;;;;;;5091091;28;21178;-73
2021/03/10 06:53:52;;;;;;;22.37;15.07;;;6.70;99.90;;;;;;5110034;28;20852;-73
2021/03/10 06:56:24;;;;;;;23.90;16.13;;;6.70;99.90;;;;;;5108487;28;20452;-73
2021/03/10 06:58:58;;;;;;;23.33;16.63;;;6.70;99.90;;;;;;5117914;27;20445;-72
2021/03/10 07:01:27;;;;;;;23.97;16.10;;;6.90;99.90;;;;;;5098524;28;20750;-73
2021/03/10 07:03:56;;;;;;;24.93;17.23;;;6.90;99.90;;;;;;5106326;28;20449;-74
2021/03/10 07:06:24;;;;;;;24.10;15.70;;;6.90;99.90;;;;;;5106884;28;20496;-74
2021/03/10 07:08:53;;;;;;;21.63;15.90;;;6.90;99.90;;;;;;5104815;27;20464;-75
2021/03/10 07:11:22;;;;;;;26.70;17.58;;;6.80;99.90;;;;;;5102169;28;20463;-75
2021/03/10 07:13:50;;;;;;;27.33;15.67;;;6.80;1.00;;;;;;5101291;28;20203;-76
2021/03/10 07:16:18;;;;;;;26.93;15.30;;;7.00;1.00;;;;;;5105302;28;20441;-73
2021/03/10 07:18:47;;;;;;;27.63;15.63;;;6.90;1.00;;;;;;5104576;28;20465;-74
2021/03/10 07:21:24;;;;;;;25.87;17.90;;;6.80;1.00;;;;;;5120519;27;20844;-75
2021/03/10 07:23:54;;;;;;;25.63;15.20;;;6.80;99.90;;;;;;5104981;28;20456;-74
2021/03/10 07:26:23;;;;;;;25.60;17.10;;;6.80;99.90;;;;;;5109201;28;20480;-73
2021/03/10 07:28:54;;;;;;;25.13;16.67;;;6.60;1.00;;;;;;5106725;28;20525;-74
2021/03/10 07:31:23;;;;;;;25.57;16.20;;;6.60;1.00;;;;;;5101613;28;20457;-75
2021/03/10 07:33:52;;;;;;;22.70;15.02;;;6.70;1.00;;;;;;5105102;28;20456;-75
2021/03/10 07:36:30;;;;;;;28.63;17.83;;;6.70;1.00;;;;;;5089947;28;20191;-74
2021/03/10 07:38:58;;;;;;;23.27;15.93;;;6.80;99.90;;;;;;5108203;27;20476;-73
2021/03/10 07:41:37;;;;;;;24.13;16.90;;;6.90;1.00;;;;;;5090854;28;20456;-75
2021/03/10 07:44:15;;;;;;;22.20;15.00;;;6.90;99.90;;;;;;5109464;28;20506;-74
2021/03/10 07:46:43;;;;;;;24.20;14.90;;;7.00;99.90;;;;;;5101813;28;21278;-74
2021/03/10 07:49:31;;;;;;;24.33;16.63;;;7.00;99.90;;;;;;5108446;28;20449;-74
2021/03/10 07:52:07;;;;;;;22.33;15.70;;;7.20;99.90;;;;;;5080202;28;20496;-73
2021/03/10 07:54:35;;;;;;;28.53;17.70;;;7.20;99.90;;;;;;5118279;27;20517;-75
2021/03/10 07:57:08;;;;;;;30.70;16.27;;;7.30;99.90;;;;;;5104832;28;20483;-74
2021/03/10 07:59:36;;;;;;;25.83;16.67;;;7.30;99.90;;;;;;5106203;28;20445;-74
2021/03/10 08:02:05;;;;;;;25.33;17.80;;;7.30;99.90;;;;;;5090370;28;21034;-74
2021/03/10 08:04:33;;;;;;;33.17;19.23;;;7.20;99.90;;;;;;5107859;28;20476;-74
2021/03/10 08:07:00;;;;;;;27.17;16.73;;;7.20;99.90;;;;;;5107455;28;20498;-73
2021/03/10 08:09:29;;;;;;;25.60;17.60;;;7.20;99.90;;;;;;5096735;28;20865;-76
2021/03/10 08:12:09;;;;;;;28.93;18.40;;;7.30;99.90;;;;;;5103406;28;20453;-73
2021/03/10 08:14:37;;;;;;;30.73;18.60;;;7.40;99.90;;;;;;5087965;28;20991;-78
2021/03/10 08:17:05;;;;;;;27.83;17.40;;;7.40;99.90;;;;;;5091986;28;20465;-77
2021/03/10 08:19:34;;;;;;;28.20;17.77;;;7.40;99.90;;;;;;5080825;28;20455;-76
2021/03/10 08:22:01;;;;;;;27.63;17.63;;;7.40;99.90;;;;;;5102901;28;20451;-77
2021/03/10 08:24:29;;;;;;;28.93;17.47;;;7.40;99.90;;;;;;5099929;28;20520;-75
2021/03/10 08:26:57;;;;;;;28.10;17.60;;;7.40;99.90;;;;;;5108057;28;21888;-74
2021/03/10 08:29:27;;;;;;;28.90;16.03;;;7.50;99.90;;;;;;5105126;28;21077;-74
2021/03/10 08:31:56;;;;;;;29.37;18.13;;;7.40;99.90;;;;;;5091557;28;21040;-75
2021/03/10 08:34:35;;;;;;;24.70;17.80;;;7.50;99.90;;;;;;5107733;28;20463;-74
2021/03/10 08:37:06;;;;;;;29.63;18.33;;;7.60;99.90;;;;;;5108017;28;20472;-74
2021/03/10 08:39:41;;;;;;;29.00;16.60;;;7.60;99.90;;;;;;5093832;28;20454;-76
2021/03/10 08:42:09;;;;;;;25.33;17.10;;;7.60;99.90;;;;;;5098971;28;20458;-73
2021/03/10 08:44:40;;;;;;;28.20;18.87;;;7.60;99.90;;;;;;5105224;28;20498;-70
2021/03/10 08:47:12;;;;;;;27.53;18.13;;;7.70;99.90;;;;;;5076924;28;20843;-75
2021/03/10 08:49:40;;;;;;;29.33;17.57;;;7.80;99.90;;;;;;5102229;28;20446;-77
2021/03/10 08:52:09;;;;;;;29.00;18.90;;;7.90;99.90;;;;;;5099731;28;20455;-73
2021/03/10 08:54:52;;;;;;;30.57;18.27;;;8.00;99.90;;;;;;5113583;28;20456;-73
2021/03/10 08:57:22;;;;;;;30.87;18.97;;;8.00;99.90;;;;;;5102068;28;21002;-73
2021/03/10 08:59:50;;;;;;;25.20;16.90;;;8.00;99.90;;;;;;5104308;28;20445;-73
2021/03/10 09:02:25;;;;;;;29.17;18.70;;;8.00;99.90;;;;;;5104656;28;20563;-75
2021/03/10 09:04:53;;;;;;;27.87;17.43;;;8.00;99.90;;;;;;5090941;28;20469;-75
2021/03/10 09:07:21;;;;;;;26.90;17.67;;;8.10;99.90;;;;;;5105498;28;20517;-75
2021/03/10 09:09:54;;;;;;;31.40;18.40;;;8.10;99.90;;;;;;5103842;28;20461;-74
2021/03/10 09:12:22;;;;;;;28.40;18.40;;;8.10;99.90;;;;;;5100699;28;20457;-74
2021/03/10 09:14:50;;;;;;;26.37;15.87;;;8.10;99.90;;;;;;5086568;28;20456;-73
2021/03/10 09:17:18;;;;;;;22.77;16.30;;;8.10;99.90;;;;;;5108432;28;20488;-74
2021/03/10 09:19:48;;;;;;;26.10;16.57;;;8.10;99.90;;;;;;5103804;28;20947;-74
2021/03/10 09:22:18;;;;;;;25.20;15.43;;;8.20;99.90;;;;;;5086472;28;20441;-75
2021/03/10 09:25:10;;;;;;;24.63;15.77;;;8.20;99.90;;;;;;5108252;28;20452;-73
2021/03/10 09:27:37;;;;;;;26.63;17.63;;;8.20;99.90;;;;;;5107305;28;20483;-73
2021/03/10 09:30:09;;;;;;;26.57;16.53;;;8.30;99.90;;;;;;5109219;28;20448;-75
2021/03/10 09:32:41;;;;;;;25.00;16.30;;;8.30;99.90;;;;;;5084661;28;20518;-73
2021/03/10 09:35:18;;;;;;;25.60;17.07;;;8.50;99.90;;;;;;5106229;28;20453;-74
2021/03/10 09:37:47;;;;;;;21.70;13.50;;;8.50;99.90;;;;;;5108092;28;21130;-74
2021/03/10 09:40:17;;;;;;;29.10;17.67;;;8.50;99.90;;;;;;5106881;28;20508;-74
2021/03/10 09:42:57;;;;;;;22.97;15.87;;;8.60;99.90;;;;;;5108867;28;20452;-75
2021/03/10 09:45:27;;;;;;;24.67;16.43;;;8.70;99.90;;;;;;5110060;28;20456;-75
2021/03/10 09:48:03;;;;;;;23.80;14.10;;;8.80;99.90;;;;;;5107272;27;20491;-75
2021/03/10 09:50:37;;;;;;;23.77;15.57;;;8.90;99.90;;;;;;5098478;27;20465;-74
2021/03/10 09:53:16;;;;;;;19.03;14.23;;;9.00;99.90;;;;;;5108357;28;20437;-74
2021/03/10 09:55:44;;;;;;;21.13;14.35;;;9.20;99.90;;;;;;5099077;28;20447;-74
2021/03/10 09:58:12;;;;;;;18.30;12.47;;;9.50;99.90;;;;;;5085239;28;20213;-75
2021/03/10 10:00:43;;;;;;;19.97;13.80;;;9.80;99.90;;;;;;5106241;28;21204;-73
2021/03/10 10:03:11;;;;;;;18.10;12.53;;;9.90;99.90;;;;;;5109413;28;20437;-74
2021/03/10 10:05:40;;;;;;;23.10;13.23;;;10.20;99.90;;;;;;5109094;28;20471;-75
2021/03/10 10:08:09;;;;;;;16.90;11.30;;;10.40;99.90;;;;;;5107326;28;20491;-76
2021/03/10 10:10:38;;;;;;;17.37;12.50;;;10.50;99.90;;;;;;5102035;28;21020;-76
2021/03/10 10:13:05;;;;;;;19.87;11.80;;;10.50;99.90;;;;;;5084420;28;20986;-76
2021/03/10 10:15:33;;;;;;;17.00;11.87;;;10.50;99.90;;;;;;5102463;28;21326;-75
2021/03/10 10:18:05;;;;;;;18.83;13.40;;;10.40;99.90;;;;;;5103621;27;20468;-75
2021/03/10 10:20:34;;;;;;;17.03;10.20;;;10.30;99.90;;;;;;5104630;28;20976;-76
2021/03/10 10:23:02;;;;;;;12.60;8.93;;;10.30;99.90;;;;;;5104956;28;20463;-75
2021/03/10 10:25:32;;;;;;;9.40;6.87;;;10.20;99.30;;;;;;5101430;28;20452;-76
2021/03/10 10:28:00;;;;;;;15.07;7.40;;;10.10;96.10;;;;;;5110355;28;20508;-75
2021/03/10 10:30:27;;;;;;;13.33;8.73;;;10.00;94.20;;;;;;5108295;28;20545;-77
2021/03/10 10:32:55;;;;;;;12.70;7.70;;;10.00;91.90;;;;;;5107126;27;20519;-75
2021/03/10 10:35:23;;;;;;;13.40;9.50;;;10.00;90.70;;;;;;5099940;28;20804;-72
2021/03/10 10:37:51;;;;;;;9.67;7.40;;;10.00;90.40;;;;;;5086669;28;20476;-74
2021/03/10 10:40:20;;;;;;;10.33;7.00;;;9.90;91.40;;;;;;5109450;28;20722;-76
2021/03/10 10:43:04;;;;;;;10.30;6.27;;;9.80;85.90;;;;;;5108675;28;20456;-73
2021/03/10 10:45:32;;;;;;;9.27;6.87;;;9.70;87.80;;;;;;5108548;28;20464;-74
2021/03/10 10:48:00;;;;;;;10.00;7.63;;;9.70;88.40;;;;;;5108575;28;20524;-74
2021/03/10 10:50:28;;;;;;;16.73;9.70;;;9.70;90.70;;;;;;5090498;28;20490;-74
2021/03/10 10:52:57;;;;;;;10.77;7.97;;;9.60;85.60;;;;;;5103154;28;20460;-74
2021/03/10 10:55:25;;;;;;;12.23;8.33;;;9.60;81.20;;;;;;5102001;28;20523;-76
2021/03/10 10:57:52;;;;;;;12.53;8.70;;;9.50;80.00;;;;;;5103919;28;20463;-75
2021/03/10 11:00:24;;;;;;;9.67;7.43;;;9.50;82.80;;;;;;5103475;28;20464;-74
2021/03/10 11:02:51;;;;;;;11.00;6.63;;;9.50;86.50;;;;;;5106806;27;20535;-75
2021/03/10 11:05:19;;;;;;;12.80;7.33;;;9.50;78.30;;;;;;5104918;28;21159;-74
2021/03/10 11:07:47;;;;;;;12.07;6.80;;;9.50;72.20;;;;;;5106111;28;20505;-74
2021/03/10 11:10:15;;;;;;;7.90;5.43;;;9.60;75.40;;;;;;5099126;28;20452;-75
2021/03/10 11:12:42;;;;;;;6.10;3.40;;;9.80;72.30;;;;;;5107828;28;20993;-75
2021/03/10 11:15:09;;;;;;;3.00;2.70;;;9.90;58.90;;;;;;5119891;27;20449;-75
2021/03/10 11:17:37;;;;;;;4.30;2.30;;;10.10;54.20;;;;;;5086524;28;20464;-75
2021/03/10 11:20:07;;;;;;;9.97;4.03;;;10.30;47.50;;;;;;5102157;28;20487;-74
2021/03/10 11:22:36;;;;;;;12.00;5.90;;;10.40;49.50;;;;;;5090018;28;20448;-75
2021/03/10 11:25:07;;;;;;;11.83;7.90;;;10.40;51.10;;;;;;5099012;28;20481;-74
2021/03/10 11:27:36;;;;;;;9.70;7.37;;;10.40;47.70;;;;;;5108696;28;20977;-75
2021/03/10 11:30:06;;;;;;;5.50;4.93;;;10.40;47.30;;;;;;5082417;28;20449;-74
2021/03/10 11:32:34;;;;;;;7.37;4.33;;;10.40;45.70;;;;;;5105044;28;20519;-74
2021/03/10 11:35:01;;;;;;;5.43;4.10;;;10.40;42.70;;;;;;5107323;28;20449;-73
2021/03/10 11:37:28;;;;;;;5.40;3.97;;;10.40;41.70;;;;;;5097638;28;20480;-76
2021/03/10 11:39:56;;;;;;;5.10;3.80;;;10.40;37.60;;;;;;5089044;28;20444;-73
2021/03/10 11:42:25;;;;;;;3.57;3.07;;;10.30;32.60;;;;;;5099384;28;20460;-74
2021/03/10 11:44:52;;;;;;;3.37;2.40;;;10.30;31.70;;;;;;5086561;28;20467;-74
2021/03/10 11:47:20;;;;;;;5.88;3.10;;;10.30;29.20;;;;;;5101442;28;20457;-74
2021/03/10 11:49:47;;;;;;;3.83;3.13;;;10.40;34.60;;;;;;5090485;28;20217;-75
2021/03/10 11:52:19;;;;;;;4.10;3.50;;;10.40;31.20;;;;;;5098915;28;20456;-72
2021/03/10 11:54:47;;;;;;;6.13;4.10;;;10.40;30.10;;;;;;5097720;28;20449;-73
2021/03/10 11:57:15;;;;;;;7.00;5.20;;;10.40;31.10;;;;;;5101873;28;21034;-73
2021/03/10 11:59:43;;;;;;;7.30;4.83;;;10.40;33.00;;;;;;5104854;28;20441;-74
2021/03/10 12:02:10;;;;;;;9.37;5.90;;;10.40;34.10;;;;;;5098381;27;20909;-74
2021/03/10 12:04:38;;;;;;;7.57;6.55;;;10.40;38.40;;;;;;5086332;28;20466;-73
2021/03/10 12:07:10;;;;;;;6.40;4.03;;;10.60;38.90;;;;;;5086779;28;20222;-73
2021/03/10 12:09:37;;;;;;;2.67;2.10;;;10.50;28.60;;;;;;5099400;28;20449;-75
2021/03/10 12:12:05;;;;;;;3.90;3.47;;;10.40;25.40;;;;;;5098366;28;20467;-75
2021/03/10 12:14:33;;;;;;;7.57;5.50;;;10.40;24.00;;;;;;5101980;28;20455;-75
2021/03/10 12:17:01;;;;;;;7.20;6.05;;;10.40;28.30;;;;;;5102141;28;20636;-74
2021/03/10 12:19:28;;;;;;;6.87;4.93;;;10.50;28.20;;;;;;5085260;28;20569;-74
2021/03/10 12:21:55;;;;;;;7.40;4.40;;;10.40;26.30;;;;;;5103982;28;20445;-74
2021/03/10 12:24:23;;;;;;;5.03;3.67;;;10.40;29.70;;;;;;5108034;27;20451;-75
2021/03/10 12:26:50;;;;;;;4.67;3.70;;;10.50;20.50;;;;;;5107924;28;20450;-74
2021/03/10 12:29:17;;;;;;;7.60;4.90;;;10.40;20.40;;;;;;5108444;28;20459;-75
2021/03/10 12:31:44;;;;;;;5.07;3.70;;;10.40;17.80;;;;;;5099621;28;20930;-76
2021/03/10 12:34:13;;;;;;;6.50;5.17;;;10.40;20.50;;;;;;5088381;28;20461;-76
2021/03/10 12:36:40;;;;;;;7.40;5.32;;;10.50;22.70;;;;;;5103851;28;20427;-75
2021/03/10 12:39:08;;;;;;;5.37;4.03;;;10.90;27.70;;;;;;5081880;28;20227;-74
2021/03/10 12:41:55;;;;;;;4.87;4.13;;;10.80;25.90;;;;;;5102530;28;20449;-74
2021/03/10 12:44:45;;;;;;;4.80;3.83;;;10.80;22.50;;;;;;5101786;28;21115;-74
2021/03/10 12:47:34;;;;;;;6.87;4.10;;;10.60;20.40;;;;;;5095790;28;20478;-73
2021/03/10 12:50:23;;;;;;;6.03;3.37;;;10.50;18.80;;;;;;5088358;28;20784;-74